createdAt,value
2022-09-27T00:00:59.178Z,6.63
2022-09-27T00:01:55.870Z,6.38
2022-09-27T00:02:52.574Z,6.57
2022-09-27T00:03:49.232Z,6.18
2022-09-27T00:04:45.869Z,5.60
2022-09-27T00:05:42.800Z,5.88
2022-09-27T00:06:41.048Z,5.97
2022-09-27T00:07:37.818Z,6.68
2022-09-27T00:08:36.121Z,4.95
2022-09-27T00:09:33.035Z,5.32
2022-09-27T00:10:30.066Z,6.95
2022-09-27T00:11:30.902Z,5.32
2022-09-27T00:12:27.510Z,7.00
2022-09-27T00:13:24.342Z,6.43
2022-09-27T00:14:21.035Z,6.85
2022-09-27T00:15:17.696Z,6.90
2022-09-27T00:16:14.444Z,6.70
2022-09-27T00:17:11.100Z,6.80
2022-09-27T00:18:07.781Z,6.32
2022-09-27T00:19:11.510Z,6.22
2022-09-27T00:20:09.614Z,6.43
2022-09-27T00:21:12.728Z,6.85
2022-09-27T00:22:09.327Z,7.10
2022-09-27T00:23:05.918Z,4.82
2022-09-27T00:24:03.266Z,5.63
2022-09-27T00:25:00.002Z,6.72
2022-09-27T00:25:59.968Z,5.80
2022-09-27T00:26:56.791Z,4.90
2022-09-27T00:27:53.401Z,6.13
2022-09-27T00:28:50.085Z,6.70
2022-09-27T00:29:47.750Z,6.05
2022-09-27T00:33:07.119Z,5.82
2022-09-27T00:34:05.060Z,6.47
2022-09-27T00:35:01.728Z,6.32
2022-09-27T00:36:07.729Z,5.70
2022-09-27T00:37:04.308Z,6.03
2022-09-27T00:38:00.902Z,4.88
2022-09-27T00:39:00.028Z,6.30
2022-09-27T00:39:56.811Z,5.72
2022-09-27T00:40:53.564Z,5.82
2022-09-27T00:41:50.352Z,5.82
2022-09-27T00:42:46.942Z,5.43
2022-09-27T00:43:53.508Z,8.07
2022-09-27T00:45:17.155Z,6.65
2022-09-27T00:46:18.489Z,6.78
2022-09-27T00:47:26.959Z,6.68
2022-09-27T00:48:27.923Z,6.78
2022-09-27T00:49:31.207Z,6.68
2022-09-27T00:50:40.977Z,5.72
2022-09-27T00:51:41.140Z,7.25
2022-09-27T00:52:48.841Z,7.00
2022-09-27T00:53:57.338Z,5.38
2022-09-27T00:55:01.781Z,5.95
2022-09-27T00:56:03.249Z,6.50
2022-09-27T00:57:00.577Z,5.97
2022-09-27T00:57:57.424Z,6.45
2022-09-27T00:59:17.346Z,5.70
2022-09-27T01:00:15.337Z,6.25
2022-09-27T01:01:14.328Z,5.50
2022-09-27T01:02:11.827Z,5.50
2022-09-27T01:03:12.917Z,5.45
2022-09-27T01:04:15.039Z,5.75
2022-09-27T01:05:13.761Z,6.22
2022-09-27T01:06:10.898Z,6.28
2022-09-27T01:07:07.607Z,5.15
2022-09-27T01:08:05.402Z,5.60
2022-09-27T01:09:02.353Z,6.55
2022-09-27T01:09:59.231Z,6.13
2022-09-27T01:11:11.423Z,6.47
2022-09-27T01:12:24.653Z,6.95
2022-09-27T01:14:35.122Z,6.35
2022-09-27T01:15:34.548Z,7.13
2022-09-27T01:16:43.460Z,6.93
2022-09-27T01:17:50.023Z,6.35
2022-09-27T01:19:06.393Z,6.90
2022-09-27T01:20:24.681Z,6.18
2022-09-27T01:21:53.738Z,7.28
2022-09-27T01:22:59.310Z,7.03
2022-09-27T01:24:27.990Z,5.88
2022-09-27T01:25:43.089Z,7.72
2022-09-27T01:27:10.114Z,6.45
2022-09-27T01:28:21.940Z,6.35
2022-09-27T01:29:31.182Z,4.82
2022-09-27T01:30:31.299Z,6.13
2022-09-27T01:31:48.057Z,5.32
2022-09-27T01:33:06.578Z,4.60
2022-09-27T01:34:22.810Z,5.78
2022-09-27T01:35:35.608Z,6.00
2022-09-27T01:36:47.596Z,4.40
2022-09-27T01:37:44.116Z,4.63
2022-09-27T01:38:59.917Z,5.05
2022-09-27T01:40:02.724Z,6.18
2022-09-27T01:41:15.314Z,5.50
2022-09-27T01:42:22.241Z,6.03
2022-09-27T01:43:25.119Z,5.93
2022-09-27T01:44:57.247Z,5.05
2022-09-27T01:46:01.883Z,6.30
2022-09-27T01:47:19.054Z,5.88
2022-09-27T01:48:21.771Z,6.78
2022-09-27T01:49:27.573Z,5.13
2022-09-27T01:50:33.956Z,5.72
2022-09-27T01:51:44.506Z,4.80
2022-09-27T01:52:58.453Z,4.40
2022-09-27T01:53:59.961Z,5.53
2022-09-27T01:55:01.316Z,4.20
2022-09-27T01:55:58.523Z,5.25
2022-09-27T01:56:58.115Z,5.53
2022-09-27T01:58:19.478Z,4.32
2022-09-27T01:59:25.646Z,5.80
2022-09-27T02:00:22.398Z,4.63
2022-09-27T02:01:21.923Z,5.93
2022-09-27T02:02:26.935Z,5.13
2022-09-27T02:03:35.443Z,5.03
2022-09-27T02:04:35.873Z,5.70
2022-09-27T02:05:40.113Z,6.72
2022-09-27T02:06:41.699Z,5.43
2022-09-27T02:07:44.147Z,5.50
2022-09-27T02:08:50.809Z,5.20
2022-09-27T02:09:54.020Z,5.20
2022-09-27T02:10:54.873Z,5.38
2022-09-27T02:11:57.282Z,5.45
2022-09-27T02:14:27.000Z,5.53
2022-09-27T02:15:26.622Z,5.28
2022-09-27T02:16:35.384Z,5.90
2022-09-27T02:17:41.905Z,4.82
2022-09-27T02:18:47.322Z,4.40
2022-09-27T02:20:13.656Z,5.10
2022-09-27T02:21:12.010Z,4.68
2022-09-27T02:22:26.880Z,5.18
2022-09-27T02:23:35.378Z,4.38
2022-09-27T02:24:41.178Z,5.25
2022-09-27T02:25:51.235Z,3.80
2022-09-27T02:26:58.054Z,4.40
2022-09-27T02:28:10.338Z,5.30
2022-09-27T02:29:16.759Z,4.95
2022-09-27T02:30:16.052Z,5.25
2022-09-27T02:31:12.829Z,5.35
2022-09-27T02:32:09.528Z,4.80
2022-09-27T02:33:06.167Z,4.85
2022-09-27T02:34:32.381Z,4.00
2022-09-27T02:35:32.677Z,4.93
2022-09-27T02:36:30.497Z,4.97
2022-09-27T02:37:27.189Z,4.65
2022-09-27T02:38:24.305Z,5.32
2022-09-27T02:39:21.863Z,5.10
2022-09-27T02:40:18.757Z,4.50
2022-09-27T02:41:17.780Z,5.68
2022-09-27T02:42:14.484Z,4.47
2022-09-27T02:43:13.882Z,4.88
2022-09-27T02:44:13.993Z,5.22
2022-09-27T02:45:12.835Z,4.82
2022-09-27T02:46:26.082Z,5.72
2022-09-27T02:47:32.668Z,5.28
2022-09-27T02:48:47.500Z,5.05
2022-09-27T02:49:58.944Z,5.35
2022-09-27T02:51:04.536Z,6.10
2022-09-27T02:52:19.216Z,4.03
2022-09-27T02:53:44.752Z,5.15
2022-09-27T02:54:41.655Z,4.32
2022-09-27T02:55:58.232Z,4.95
2022-09-27T02:57:16.374Z,6.13
2022-09-27T02:58:43.948Z,5.80
2022-09-27T03:00:04.852Z,4.07
2022-09-27T03:01:13.284Z,6.07
2022-09-27T03:02:27.977Z,6.13
2022-09-27T03:03:34.024Z,5.68
2022-09-27T03:04:37.282Z,4.65
2022-09-27T03:05:40.730Z,5.30
2022-09-27T03:06:42.481Z,4.97
2022-09-27T03:07:40.083Z,4.88
2022-09-27T03:08:38.748Z,4.63
2022-09-27T03:09:49.656Z,5.15
2022-09-27T03:10:46.384Z,5.38
2022-09-27T03:11:43.047Z,4.82
2022-09-27T03:12:39.750Z,5.68
2022-09-27T03:13:55.796Z,4.70
2022-09-27T03:14:57.435Z,5.28
2022-09-27T03:15:57.029Z,5.18
2022-09-27T03:16:56.137Z,5.18
2022-09-27T03:17:52.697Z,3.67
2022-09-27T03:18:49.296Z,4.82
2022-09-27T03:19:45.895Z,4.85
2022-09-27T03:20:42.541Z,5.32
2022-09-27T03:21:40.045Z,4.95
2022-09-27T03:22:37.788Z,4.47
2022-09-27T03:23:34.647Z,5.60
2022-09-27T03:24:31.296Z,5.03
2022-09-27T03:25:27.850Z,4.97
2022-09-27T03:26:25.386Z,4.10
2022-09-27T03:27:22.183Z,4.65
2022-09-27T03:28:19.090Z,3.75
2022-09-27T03:29:16.401Z,4.70
2022-09-27T03:30:14.306Z,4.95
2022-09-27T03:31:11.036Z,4.32
2022-09-27T03:32:07.756Z,4.53
2022-09-27T03:33:04.735Z,5.45
2022-09-27T03:34:01.323Z,4.30
2022-09-27T03:34:57.919Z,4.30
2022-09-27T03:35:54.551Z,4.05
2022-09-27T03:36:51.210Z,5.03
2022-09-27T03:37:47.920Z,4.78
2022-09-27T03:38:44.481Z,4.85
2022-09-27T03:39:41.015Z,4.95
2022-09-27T03:40:37.839Z,4.32
2022-09-27T03:41:35.175Z,4.75
2022-09-27T03:42:32.160Z,4.80
2022-09-27T03:43:28.740Z,4.03
2022-09-27T03:44:25.377Z,5.20
2022-09-27T03:45:22.166Z,5.03
2022-09-27T03:46:18.974Z,5.15
2022-09-27T03:47:15.642Z,4.47
2022-09-27T03:48:12.291Z,4.80
2022-09-27T03:49:08.900Z,4.70
2022-09-27T03:50:06.454Z,3.78
2022-09-27T03:51:04.545Z,4.38
2022-09-27T03:52:01.329Z,4.32
2022-09-27T03:52:58.009Z,4.22
2022-09-27T03:53:54.580Z,3.83
2022-09-27T03:54:51.595Z,4.45
2022-09-27T03:55:48.544Z,4.82
2022-09-27T03:56:45.363Z,5.10
2022-09-27T03:57:46.697Z,4.13
2022-09-27T03:58:43.372Z,4.90
2022-09-27T03:59:40.078Z,4.60
2022-09-27T04:00:37.301Z,4.03
2022-09-27T04:01:35.932Z,4.68
2022-09-27T04:02:32.685Z,4.53
2022-09-27T04:03:29.304Z,4.07
2022-09-27T04:04:25.906Z,4.93
2022-09-27T04:05:24.077Z,4.53
2022-09-27T04:06:20.713Z,5.38
2022-09-27T04:07:17.971Z,4.40
2022-09-27T04:08:14.796Z,4.28
2022-09-27T04:09:11.451Z,3.97
2022-09-27T04:10:08.773Z,4.90
2022-09-27T04:11:05.508Z,4.70
2022-09-27T04:12:02.397Z,5.05
2022-09-27T04:12:58.979Z,4.50
2022-09-27T04:13:56.418Z,4.55
2022-09-27T04:14:53.060Z,4.50
2022-09-27T04:15:52.228Z,5.68
2022-09-27T04:16:49.170Z,4.85
2022-09-27T04:17:45.830Z,4.97
2022-09-27T04:18:43.402Z,4.82
2022-09-27T04:19:40.094Z,4.22
2022-09-27T04:20:37.411Z,5.38
2022-09-27T04:21:35.135Z,5.28
2022-09-27T04:22:31.737Z,4.28
2022-09-27T04:23:30.151Z,5.45
2022-09-27T04:24:27.362Z,4.95
2022-09-27T04:25:24.091Z,6.00
2022-09-27T04:26:21.172Z,4.28
2022-09-27T04:27:17.889Z,6.20
2022-09-27T04:28:15.207Z,6.40
2022-09-27T04:29:12.258Z,6.63
2022-09-27T04:30:09.808Z,7.15
2022-09-27T04:31:06.536Z,5.85
2022-09-27T04:32:03.188Z,4.85
2022-09-27T04:32:59.825Z,5.07
2022-09-27T04:33:56.670Z,4.57
2022-09-27T04:35:11.608Z,5.10
2022-09-27T04:36:27.929Z,4.60
2022-09-27T04:37:24.683Z,4.68
2022-09-27T04:38:24.219Z,5.63
2022-09-27T04:39:20.797Z,5.50
2022-09-27T04:40:17.540Z,5.03
2022-09-27T04:41:15.312Z,4.68
2022-09-27T04:42:11.972Z,6.03
2022-09-27T04:43:08.548Z,14.90
2022-09-27T04:44:06.617Z,23.23
2022-09-27T04:45:03.511Z,21.92
2022-09-27T04:46:00.258Z,18.77
2022-09-27T04:46:57.855Z,10.48
2022-09-27T04:47:54.450Z,5.40
2022-09-27T04:48:51.307Z,5.43
2022-09-27T04:49:48.247Z,6.35
2022-09-27T04:50:44.861Z,5.95
2022-09-27T04:51:41.450Z,5.72
2022-09-27T04:52:38.321Z,6.15
2022-09-27T04:53:35.016Z,4.63
2022-09-27T04:54:32.075Z,6.47
2022-09-27T04:55:28.699Z,6.90
2022-09-27T04:56:25.525Z,6.38
2022-09-27T04:57:22.097Z,5.53
2022-09-27T04:58:18.692Z,5.85
2022-09-27T04:59:15.598Z,5.57
2022-09-27T05:00:12.947Z,6.00
2022-09-27T05:01:10.335Z,6.15
2022-09-27T05:02:07.050Z,6.38
2022-09-27T05:03:04.003Z,6.15
2022-09-27T05:04:00.752Z,5.88
2022-09-27T05:04:59.378Z,5.53
2022-09-27T05:05:56.044Z,6.70
2022-09-27T05:06:57.055Z,6.90
2022-09-27T05:07:54.062Z,7.20
2022-09-27T05:08:50.645Z,6.22
2022-09-27T05:09:47.237Z,6.60
2022-09-27T05:10:43.806Z,5.40
2022-09-27T05:11:40.428Z,5.63
2022-09-27T05:12:37.163Z,6.40
2022-09-27T05:13:33.797Z,5.90
2022-09-27T05:14:30.426Z,5.53
2022-09-27T05:15:27.137Z,4.93
2022-09-27T05:16:25.107Z,5.57
2022-09-27T05:17:22.422Z,6.80
2022-09-27T05:18:19.135Z,6.55
2022-09-27T05:19:15.799Z,6.57
2022-09-27T05:20:14.538Z,5.90
2022-09-27T05:21:11.288Z,5.80
2022-09-27T05:22:08.888Z,5.50
2022-09-27T05:23:05.843Z,6.32
2022-09-27T05:24:02.440Z,5.30
2022-09-27T05:24:58.985Z,6.65
2022-09-27T05:25:56.583Z,5.80
2022-09-27T05:26:53.552Z,6.25
2022-09-27T05:27:51.012Z,5.45
2022-09-27T05:28:47.616Z,6.75
2022-09-27T05:29:45.836Z,5.72
2022-09-27T05:30:42.539Z,5.78
2022-09-27T05:31:39.193Z,6.75
2022-09-27T05:32:36.180Z,5.85
2022-09-27T05:33:34.337Z,6.47
2022-09-27T05:34:32.633Z,7.38
2022-09-27T05:35:29.291Z,5.55
2022-09-27T05:36:25.862Z,5.93
2022-09-27T05:37:23.427Z,7.45
2022-09-27T05:38:20.134Z,7.75
2022-09-27T05:39:17.347Z,6.18
2022-09-27T05:40:36.474Z,7.47
2022-09-27T05:41:32.849Z,7.35
2022-09-27T05:42:29.504Z,8.07
2022-09-27T05:43:26.262Z,7.32
2022-09-27T05:44:23.057Z,7.30
2022-09-27T05:45:22.068Z,8.43
2022-09-27T05:46:18.798Z,7.35
2022-09-27T05:47:16.042Z,6.13
2022-09-27T05:48:14.187Z,7.30
2022-09-27T05:49:10.761Z,5.65
2022-09-27T05:50:09.860Z,6.40
2022-09-27T05:51:06.834Z,7.20
2022-09-27T05:52:03.435Z,6.45
2022-09-27T05:53:00.032Z,6.70
2022-09-27T05:53:56.619Z,6.05
2022-09-27T05:54:53.229Z,6.68
2022-09-27T05:55:49.860Z,6.28
2022-09-27T05:56:46.584Z,6.30
2022-09-27T05:57:43.169Z,6.20
2022-09-27T05:58:39.791Z,6.63
2022-09-27T05:59:36.369Z,6.00
2022-09-27T06:00:33.647Z,6.10
2022-09-27T06:01:30.275Z,6.18
2022-09-27T06:02:26.875Z,5.90
2022-09-27T06:03:23.490Z,6.15
2022-09-27T06:04:21.500Z,6.13
2022-09-27T06:05:18.129Z,5.82
2022-09-27T06:06:15.631Z,6.45
2022-09-27T06:07:12.205Z,6.07
2022-09-27T06:08:12.126Z,6.80
2022-09-27T06:09:12.658Z,6.82
2022-09-27T06:10:09.322Z,6.30
2022-09-27T06:11:08.674Z,6.20
2022-09-27T06:12:05.769Z,5.65
2022-09-27T06:13:08.301Z,5.97
2022-09-27T06:15:01.907Z,5.68
2022-09-27T06:15:59.302Z,7.05
2022-09-27T06:16:56.125Z,5.93
2022-09-27T06:17:52.743Z,5.85
2022-09-27T06:18:49.353Z,5.35
2022-09-27T06:19:47.721Z,6.78
2022-09-27T06:20:44.770Z,5.45
2022-09-27T06:21:41.356Z,6.25
2022-09-27T06:22:37.976Z,5.07
2022-09-27T06:23:34.757Z,6.20
2022-09-27T06:24:31.368Z,6.10
2022-09-27T06:25:27.972Z,6.85
2022-09-27T06:26:27.230Z,6.35
2022-09-27T06:27:23.835Z,6.30
2022-09-27T06:28:21.569Z,6.20
2022-09-27T06:29:18.119Z,5.93
2022-09-27T06:30:18.223Z,6.65
2022-09-27T06:31:16.910Z,6.72
2022-09-27T06:32:13.629Z,7.07
2022-09-27T06:33:13.067Z,6.35
2022-09-27T06:34:09.631Z,5.70
2022-09-27T06:35:07.088Z,6.10
2022-09-27T06:36:08.182Z,5.95
2022-09-27T06:37:05.039Z,7.40
2022-09-27T06:38:08.934Z,6.40
2022-09-27T06:39:05.545Z,5.47
2022-09-27T06:40:02.542Z,6.95
2022-09-27T06:41:04.361Z,6.88
2022-09-27T06:42:02.245Z,6.50
2022-09-27T06:43:06.175Z,6.57
2022-09-27T06:44:03.663Z,5.78
2022-09-27T06:45:00.500Z,5.63
2022-09-27T06:46:05.907Z,5.85
2022-09-27T06:47:04.034Z,6.32
2022-09-27T06:48:02.524Z,6.50
2022-09-27T06:48:59.053Z,6.72
2022-09-27T06:49:56.627Z,5.20
2022-09-27T06:50:59.216Z,7.57
2022-09-27T06:51:57.425Z,5.95
2022-09-27T06:52:54.043Z,6.55
2022-09-27T06:53:50.880Z,5.78
2022-09-27T06:54:47.501Z,5.00
2022-09-27T06:55:44.190Z,6.30
2022-09-27T06:56:40.890Z,6.22
2022-09-27T06:57:55.640Z,6.18
2022-09-27T06:59:11.079Z,6.22
2022-09-27T07:00:26.509Z,5.93
2022-09-27T07:01:30.414Z,5.63
2022-09-27T07:02:27.638Z,6.70
2022-09-27T07:03:35.522Z,6.03
2022-09-27T07:04:33.382Z,5.60
2022-09-27T07:05:30.997Z,6.57
2022-09-27T07:06:27.675Z,5.05
2022-09-27T07:07:24.813Z,6.40
2022-09-27T07:08:21.525Z,6.30
2022-09-27T07:09:19.216Z,6.85
2022-09-27T07:10:19.338Z,6.22
2022-09-27T07:11:16.304Z,5.80
2022-09-27T07:12:15.399Z,6.68
2022-09-27T07:13:12.494Z,7.18
2022-09-27T07:14:10.532Z,6.40
2022-09-27T07:15:07.467Z,5.78
2022-09-27T07:16:04.559Z,5.45
2022-09-27T07:17:01.258Z,5.20
2022-09-27T07:17:59.291Z,5.93
2022-09-27T07:18:55.852Z,7.00
2022-09-27T07:19:53.135Z,6.18
2022-09-27T07:20:50.847Z,5.55
2022-09-27T07:21:47.420Z,5.57
2022-09-27T07:22:45.532Z,5.90
2022-09-27T07:23:42.496Z,5.68
2022-09-27T07:24:39.136Z,5.97
2022-09-27T07:25:36.230Z,5.75
2022-09-27T07:26:32.840Z,5.38
2022-09-27T07:27:29.853Z,5.68
2022-09-27T07:28:26.428Z,4.82
2022-09-27T07:29:23.042Z,5.25
2022-09-27T07:30:21.309Z,5.10
2022-09-27T07:31:17.985Z,5.72
2022-09-27T07:32:14.668Z,5.00
2022-09-27T07:33:12.240Z,5.18
2022-09-27T07:34:09.216Z,5.22
2022-09-27T07:35:08.553Z,5.20
2022-09-27T07:36:09.583Z,4.93
2022-09-27T07:37:06.209Z,5.15
2022-09-27T07:38:03.765Z,4.95
2022-09-27T07:39:00.447Z,5.07
2022-09-27T07:39:57.747Z,4.85
2022-09-27T07:40:54.376Z,5.85
2022-09-27T07:41:51.090Z,4.75
2022-09-27T07:42:47.979Z,4.55
2022-09-27T07:43:45.049Z,4.95
2022-09-27T07:44:41.629Z,5.20
2022-09-27T07:45:38.951Z,5.70
2022-09-27T07:46:35.577Z,5.03
2022-09-27T07:47:32.955Z,4.82
2022-09-27T07:48:30.041Z,5.18
2022-09-27T07:49:26.741Z,5.22
2022-09-27T07:50:23.508Z,5.65
2022-09-27T07:51:20.120Z,5.13
2022-09-27T07:52:16.750Z,5.53
2022-09-27T07:53:14.012Z,4.85
2022-09-27T07:54:10.655Z,5.50
2022-09-27T07:55:09.012Z,5.15
2022-09-27T07:56:05.773Z,4.63
2022-09-27T07:57:03.368Z,4.72
2022-09-27T07:58:11.798Z,4.72
2022-09-27T07:59:08.469Z,4.72
2022-09-27T08:00:11.408Z,5.60
2022-09-27T08:01:08.120Z,5.60
2022-09-27T08:02:05.128Z,5.00
2022-09-27T08:03:16.258Z,4.45
2022-09-27T08:04:13.205Z,4.65
2022-09-27T08:05:10.601Z,4.20
2022-09-27T08:06:07.568Z,4.97
2022-09-27T08:07:04.195Z,4.90
2022-09-27T08:08:01.011Z,3.92
2022-09-27T08:09:01.750Z,4.97
2022-09-27T08:09:58.553Z,4.53
2022-09-27T08:10:55.863Z,4.32
2022-09-27T08:11:52.523Z,4.45
2022-09-27T08:12:49.093Z,4.10
2022-09-27T08:13:46.306Z,4.40
2022-09-27T08:14:48.078Z,4.38
2022-09-27T08:15:45.103Z,4.78
2022-09-27T08:16:42.001Z,4.30
2022-09-27T08:17:38.590Z,5.22
2022-09-27T08:18:35.241Z,4.70
2022-09-27T08:19:31.863Z,4.68
2022-09-27T08:20:28.468Z,4.32
2022-09-27T08:21:25.129Z,4.28
2022-09-27T08:22:24.667Z,5.10
2022-09-27T08:23:21.692Z,4.40
2022-09-27T08:24:18.415Z,4.93
2022-09-27T08:25:15.131Z,5.07
2022-09-27T08:26:11.846Z,5.97
2022-09-27T08:27:11.776Z,4.97
2022-09-27T08:28:09.858Z,4.70
2022-09-27T08:29:06.707Z,5.07
2022-09-27T08:30:04.207Z,5.70
2022-09-27T08:31:00.985Z,5.05
2022-09-27T08:31:57.647Z,5.32
2022-09-27T08:32:58.553Z,4.93
2022-09-27T08:33:55.185Z,5.57
2022-09-27T08:34:51.813Z,5.85
2022-09-27T08:35:48.453Z,6.05
2022-09-27T08:36:45.073Z,5.45
2022-09-27T08:37:41.739Z,5.15
2022-09-27T08:38:38.433Z,6.35
2022-09-27T08:39:35.038Z,6.03
2022-09-27T08:40:57.407Z,6.40
2022-09-27T08:42:12.838Z,6.05
2022-09-27T08:43:12.347Z,6.80
2022-09-27T08:44:33.454Z,5.75
2022-09-27T08:45:45.092Z,5.15
2022-09-27T08:47:03.005Z,5.50
2022-09-27T08:48:02.900Z,5.97
2022-09-27T08:49:07.567Z,5.25
2022-09-27T08:50:19.385Z,6.53
2022-09-27T08:51:16.805Z,4.75
2022-09-27T08:52:19.193Z,5.07
2022-09-27T08:53:47.375Z,5.15
2022-09-27T08:54:45.478Z,4.75
2022-09-27T08:55:47.941Z,5.25
2022-09-27T08:57:41.603Z,5.15
2022-09-27T08:58:48.733Z,3.75
2022-09-27T09:00:11.002Z,4.65
2022-09-27T09:01:15.394Z,4.80
2022-09-27T09:02:24.886Z,4.65
2022-09-27T09:03:31.451Z,4.32
2022-09-27T09:04:37.948Z,4.60
2022-09-27T09:05:35.643Z,4.00
2022-09-27T09:06:48.145Z,4.28
2022-09-27T09:08:22.577Z,4.55
2022-09-27T09:10:45.891Z,4.75
2022-09-27T09:12:00.805Z,4.22
2022-09-27T09:13:09.085Z,4.20
2022-09-27T09:14:14.871Z,4.32
2022-09-27T09:15:20.837Z,4.50
2022-09-27T09:16:20.656Z,4.50
2022-09-27T09:17:36.691Z,4.40
2022-09-27T09:18:55.346Z,3.63
2022-09-27T09:20:17.068Z,4.00
2022-09-27T09:21:38.425Z,4.50
2022-09-27T09:23:20.523Z,4.70
2022-09-27T09:24:34.494Z,4.90
2022-09-27T09:25:40.509Z,4.75
2022-09-27T09:26:45.469Z,4.68
2022-09-27T09:27:45.245Z,5.05
2022-09-27T09:28:54.092Z,4.88
2022-09-27T09:30:15.586Z,5.30
2022-09-27T09:31:30.818Z,5.15
2022-09-27T09:32:46.030Z,4.70
2022-09-27T09:34:00.755Z,4.50
2022-09-27T09:35:34.401Z,4.38
2022-09-27T09:36:38.983Z,5.05
2022-09-27T09:37:59.992Z,4.80
2022-09-27T09:39:02.596Z,5.20
2022-09-27T09:40:25.254Z,5.10
2022-09-27T09:41:33.614Z,5.60
2022-09-27T09:42:39.010Z,5.03
2022-09-27T09:43:37.803Z,5.80
2022-09-27T09:44:43.978Z,5.00
2022-09-27T09:45:45.457Z,4.95
2022-09-27T09:46:46.409Z,4.93
2022-09-27T09:47:53.124Z,4.50
2022-09-27T09:48:59.226Z,4.88
2022-09-27T09:50:01.395Z,4.82
2022-09-27T09:51:01.347Z,3.72
2022-09-27T09:52:11.187Z,4.30
2022-09-27T09:53:21.923Z,4.07
2022-09-27T09:54:33.516Z,4.20
2022-09-27T09:55:35.234Z,3.72
2022-09-27T09:56:40.708Z,3.42
2022-09-27T09:58:04.218Z,3.78
2022-09-27T09:59:04.875Z,3.85
2022-09-27T10:00:07.719Z,5.38
2022-09-27T10:01:18.702Z,5.45
2022-09-27T10:02:21.194Z,4.18
2022-09-27T10:04:34.681Z,4.45
2022-09-27T10:05:31.540Z,3.90
2022-09-27T10:06:30.455Z,4.25
2022-09-27T10:07:28.277Z,4.70
2022-09-27T10:08:25.011Z,4.35
2022-09-27T10:09:25.365Z,4.20
2022-09-27T10:10:22.718Z,4.32
2022-09-27T10:11:26.084Z,4.15
2022-09-27T10:12:22.939Z,4.88
2022-09-27T10:13:22.235Z,4.55
2022-09-27T10:14:21.510Z,5.05
2022-09-27T10:15:24.623Z,4.40
2022-09-27T10:16:21.749Z,4.90
2022-09-27T10:17:22.936Z,5.20
2022-09-27T10:18:19.776Z,5.38
2022-09-27T10:19:26.390Z,4.20
2022-09-27T10:20:31.460Z,4.00
2022-09-27T10:21:31.200Z,5.63
2022-09-27T10:22:45.080Z,5.70
2022-09-27T10:24:16.565Z,5.47
2022-09-27T10:25:16.533Z,4.07
2022-09-27T10:26:13.520Z,5.32
2022-09-27T10:27:10.213Z,5.00
2022-09-27T10:28:07.025Z,4.95
2022-09-27T10:29:37.909Z,5.13
2022-09-27T10:30:35.697Z,4.13
2022-09-27T10:31:37.427Z,5.03
2022-09-27T10:32:37.239Z,4.00
2022-09-27T10:33:35.188Z,4.00
2022-09-27T10:34:37.341Z,4.43
2022-09-27T10:35:37.981Z,4.07
2022-09-27T10:36:36.245Z,4.32
2022-09-27T10:37:32.896Z,4.32
2022-09-27T10:38:33.214Z,4.40
2022-09-27T10:39:30.169Z,3.78
2022-09-27T10:40:30.300Z,4.25
2022-09-27T10:41:32.407Z,3.80
2022-09-27T10:42:38.010Z,3.63
2022-09-27T10:43:36.590Z,3.47
2022-09-27T10:44:33.125Z,3.63
2022-09-27T10:45:34.312Z,3.33
2022-09-27T10:46:34.313Z,3.25
2022-09-27T10:47:31.269Z,2.90
2022-09-27T10:48:27.980Z,3.10
2022-09-27T10:49:34.663Z,3.53
2022-09-27T10:50:49.858Z,3.60
2022-09-27T10:52:00.541Z,3.08
2022-09-27T10:53:06.908Z,3.20
2022-09-27T10:54:03.550Z,2.83
2022-09-27T10:55:09.113Z,2.78
2022-09-27T10:56:06.143Z,3.47
2022-09-27T10:57:19.000Z,3.08
2022-09-27T10:58:25.234Z,3.03
2022-09-27T10:59:22.177Z,3.65
2022-09-27T11:00:26.308Z,2.75
2022-09-27T11:01:24.117Z,3.47
2022-09-27T11:02:22.352Z,3.90
2022-09-27T11:03:19.383Z,2.70
2022-09-27T11:04:30.708Z,2.80
2022-09-27T11:05:28.106Z,3.17
2022-09-27T11:06:24.666Z,3.75
2022-09-27T11:07:22.269Z,3.42
2022-09-27T11:08:18.792Z,3.83
2022-09-27T11:09:26.617Z,3.22
2022-09-27T11:10:36.321Z,2.88
2022-09-27T11:11:33.886Z,3.08
2022-09-27T11:12:32.134Z,2.80
2022-09-27T11:13:32.796Z,2.85
2022-09-27T11:14:32.142Z,3.10
2022-09-27T11:15:31.057Z,3.45
2022-09-27T11:16:54.210Z,3.72
2022-09-27T11:18:04.906Z,3.33
2022-09-27T11:19:26.550Z,2.90
2022-09-27T11:20:38.050Z,3.28
2022-09-27T11:22:08.711Z,3.05
2022-09-27T11:23:13.601Z,3.88
2022-09-27T11:24:19.209Z,3.22
2022-09-27T11:25:54.467Z,3.17
2022-09-27T11:26:51.186Z,3.20
2022-09-27T11:28:20.130Z,3.25
2022-09-27T11:29:26.618Z,3.25
2022-09-27T11:30:24.628Z,3.63
2022-09-27T11:31:49.578Z,3.13
2022-09-27T11:33:05.443Z,3.33
2022-09-27T11:34:29.198Z,3.00
2022-09-27T11:36:27.952Z,2.67
2022-09-27T11:37:41.574Z,3.70
2022-09-27T11:39:04.324Z,3.22
2022-09-27T11:40:22.159Z,3.38
2022-09-27T11:41:37.667Z,3.60
2022-09-27T11:42:43.375Z,3.45
2022-09-27T11:44:15.351Z,3.63
2022-09-27T11:45:45.229Z,3.05
2022-09-27T11:46:43.145Z,3.25
2022-09-27T11:47:42.633Z,3.25
2022-09-27T11:48:42.193Z,2.88
2022-09-27T11:50:19.182Z,3.47
2022-09-27T11:51:53.497Z,3.70
2022-09-27T11:52:58.969Z,4.10
2022-09-27T11:54:17.161Z,3.60
2022-09-27T11:55:29.504Z,3.28
2022-09-27T11:57:13.046Z,3.95
2022-09-27T11:58:42.862Z,3.08
2022-09-27T12:00:13.185Z,3.13
2022-09-27T12:01:26.909Z,3.13
2022-09-27T12:02:30.341Z,3.50
2022-09-27T12:03:32.878Z,2.72
2022-09-27T12:05:08.360Z,3.15
2022-09-27T12:06:20.462Z,3.17
2022-09-27T12:07:50.029Z,3.22
2022-09-27T12:09:15.659Z,2.88
2022-09-27T12:10:17.199Z,3.00
2022-09-27T12:11:19.761Z,3.03
2022-09-27T12:13:23.434Z,2.90
2022-09-27T12:14:47.284Z,3.60
2022-09-27T12:15:47.925Z,3.00
2022-09-27T12:16:47.108Z,3.33
2022-09-27T12:17:46.745Z,2.92
2022-09-27T12:18:50.666Z,3.35
2022-09-27T12:19:53.420Z,3.17
2022-09-27T12:20:50.187Z,3.58
2022-09-27T12:21:47.733Z,3.30
2022-09-27T12:23:00.395Z,3.35
2022-09-27T12:23:58.167Z,4.05
2022-09-27T12:24:55.031Z,4.10
2022-09-27T12:25:57.918Z,3.38
2022-09-27T12:27:00.301Z,3.35
2022-09-27T12:28:08.668Z,3.42
2022-09-27T12:29:20.625Z,3.50
2022-09-27T12:30:17.453Z,3.40
2022-09-27T12:31:42.907Z,3.75
2022-09-27T12:33:05.601Z,3.60
2022-09-27T12:34:24.740Z,2.92
2022-09-27T12:35:44.393Z,3.13
2022-09-27T12:36:46.503Z,3.50
2022-09-27T12:38:03.082Z,3.15
2022-09-27T12:39:15.933Z,3.10
2022-09-27T12:40:40.526Z,3.63
2022-09-27T12:41:41.011Z,3.50
2022-09-27T12:42:43.580Z,3.17
2022-09-27T12:43:47.290Z,3.13
2022-09-27T12:44:49.086Z,3.60
2022-09-27T12:46:00.111Z,2.97
2022-09-27T12:46:59.440Z,3.08
2022-09-27T12:48:50.380Z,3.00
2022-09-27T12:50:01.600Z,3.75
2022-09-27T12:51:09.318Z,3.22
2022-09-27T12:52:12.023Z,3.25
2022-09-27T12:53:18.926Z,3.47
2022-09-27T12:54:28.027Z,3.50
2022-09-27T12:55:57.853Z,2.28
2022-09-27T12:57:14.626Z,3.20
2022-09-27T12:58:41.297Z,3.50
2022-09-27T12:59:56.355Z,3.50
2022-09-27T13:01:13.929Z,4.20
2022-09-27T13:02:32.029Z,3.88
2022-09-27T13:03:37.404Z,4.78
2022-09-27T13:04:43.168Z,4.15
2022-09-27T13:05:45.743Z,2.58
2022-09-27T13:08:08.979Z,2.08
2022-09-27T13:10:45.404Z,2.20
2022-09-27T13:12:00.746Z,2.00
2022-09-27T13:13:00.386Z,2.15
2022-09-27T13:14:01.090Z,2.08
2022-09-27T13:15:13.742Z,2.50
2022-09-27T13:16:11.053Z,1.90
2022-09-27T13:17:37.631Z,2.10
2022-09-27T13:18:38.132Z,2.10
2022-09-27T13:19:44.130Z,1.75
2022-09-27T13:20:44.296Z,2.00
2022-09-27T13:21:49.627Z,1.85
2022-09-27T13:22:46.305Z,9.75
2022-09-27T13:23:43.000Z,2.13
2022-09-27T13:24:44.153Z,2.10
2022-09-27T13:25:55.849Z,2.47
2022-09-27T13:26:53.327Z,2.50
2022-09-27T13:27:49.989Z,1.92
2022-09-27T13:28:52.366Z,2.30
2022-09-27T13:29:50.552Z,2.28
2022-09-27T13:30:47.286Z,1.80
2022-09-27T13:31:58.031Z,2.05
2022-09-27T13:33:09.648Z,2.30
2022-09-27T13:34:46.074Z,2.67
2022-09-27T13:35:44.008Z,2.50
2022-09-27T13:36:40.678Z,2.30
2022-09-27T13:37:59.341Z,2.20
2022-09-27T13:39:01.438Z,2.67
2022-09-27T13:40:16.178Z,2.17
2022-09-27T13:41:18.306Z,2.40
2022-09-27T13:42:39.537Z,2.80
2022-09-27T13:44:08.125Z,2.60
2022-09-27T13:45:20.225Z,2.30
2022-09-27T13:46:24.705Z,2.58
2022-09-27T13:47:34.510Z,2.13
2022-09-27T13:48:47.922Z,2.50
2022-09-27T13:49:49.943Z,2.08
2022-09-27T13:50:58.306Z,2.70
2022-09-27T13:52:00.447Z,2.72
2022-09-27T13:53:07.048Z,2.83
2022-09-27T13:54:35.413Z,2.67
2022-09-27T13:55:46.067Z,2.90
2022-09-27T13:56:46.759Z,2.72
2022-09-27T13:57:55.521Z,2.90
2022-09-27T13:58:59.878Z,2.60
2022-09-27T14:00:00.966Z,3.03
2022-09-27T14:01:05.605Z,2.60
2022-09-27T14:02:19.820Z,2.95
2022-09-27T14:03:26.211Z,2.25
2022-09-27T14:04:25.389Z,2.70
2022-09-27T14:05:27.719Z,2.60
2022-09-27T14:06:28.975Z,2.90
2022-09-27T14:07:35.601Z,3.05
2022-09-27T14:08:37.562Z,2.80
2022-09-27T14:09:40.368Z,2.92
2022-09-27T14:10:37.348Z,2.60
2022-09-27T14:11:39.314Z,2.80
2022-09-27T14:12:39.740Z,3.28